sensor_id;sensor_type;location;lat;lon;timestamp;temperature;humidity
70550;DHT22;58101;48.658;2.328;2023-05-19T00:00:02;13.10;68.10
70550;DHT22;58101;48.658;2.328;2023-05-19T00:02:33;13.10;68.10
70550;DHT22;58101;48.658;2.328;2023-05-19T00:05:08;13.00;68.10
70550;DHT22;58101;48.658;2.328;2023-05-19T00:07:37;13.00;68.70
70550;DHT22;58101;48.658;2.328;2023-05-19T00:10:04;13.00;68.70
70550;DHT22;58101;48.658;2.328;2023-05-19T00:12:30;13.00;68.30
70550;DHT22;58101;48.658;2.328;2023-05-19T00:14:56;12.90;68.20
70550;DHT22;58101;48.658;2.328;2023-05-19T00:17:22;12.90;69.10
70550;DHT22;58101;48.658;2.328;2023-05-19T00:19:48;12.90;69.40
70550;DHT22;58101;48.658;2.328;2023-05-19T00:22:14;12.90;70.00
70550;DHT22;58101;48.658;2.328;2023-05-19T00:24:40;12.80;70.10
70550;DHT22;58101;48.658;2.328;2023-05-19T00:27:06;12.80;69.80
70550;DHT22;58101;48.658;2.328;2023-05-19T00:29:32;12.80;70.00
70550;DHT22;58101;48.658;2.328;2023-05-19T00:31:57;12.80;70.70
70550;DHT22;58101;48.658;2.328;2023-05-19T00:34:23;12.80;71.20
70550;DHT22;58101;48.658;2.328;2023-05-19T00:36:48;12.80;71.00
70550;DHT22;58101;48.658;2.328;2023-05-19T00:39:15;12.90;71.80
70550;DHT22;58101;48.658;2.328;2023-05-19T00:41:40;12.70;72.30
70550;DHT22;58101;48.658;2.328;2023-05-19T00:44:06;12.70;73.10
70550;DHT22;58101;48.658;2.328;2023-05-19T00:46:32;12.60;73.10
70550;DHT22;58101;48.658;2.328;2023-05-19T00:48:58;12.50;74.00
70550;DHT22;58101;48.658;2.328;2023-05-19T00:51:27;12.60;74.60
70550;DHT22;58101;48.658;2.328;2023-05-19T00:54:00;12.50;75.60
70550;DHT22;58101;48.658;2.328;2023-05-19T00:56:31;12.50;76.10
70550;DHT22;58101;48.658;2.328;2023-05-19T00:58:57;12.60;76.90
70550;DHT22;58101;48.658;2.328;2023-05-19T01:01:23;12.60;78.30
70550;DHT22;58101;48.658;2.328;2023-05-19T01:03:51;12.40;79.40
70550;DHT22;58101;48.658;2.328;2023-05-19T01:06:17;12.40;79.90
70550;DHT22;58101;48.658;2.328;2023-05-19T01:08:50;12.40;81.50
70550;DHT22;58101;48.658;2.328;2023-05-19T01:13:51;12.30;83.90
70550;DHT22;58101;48.658;2.328;2023-05-19T01:28:30;12.10;90.30
70550;DHT22;58101;48.658;2.328;2023-05-19T01:30:59;12.10;90.50
70550;DHT22;58101;48.658;2.328;2023-05-19T01:33:29;12.10;90.90
70550;DHT22;58101;48.658;2.328;2023-05-19T01:36:13;12.10;91.70
70550;DHT22;58101;48.658;2.328;2023-05-19T01:38:39;12.00;92.40
70550;DHT22;58101;48.658;2.328;2023-05-19T01:41:08;12.00;92.90
70550;DHT22;58101;48.658;2.328;2023-05-19T01:43:35;12.00;93.50
70550;DHT22;58101;48.658;2.328;2023-05-19T01:46:02;11.90;93.70
70550;DHT22;58101;48.658;2.328;2023-05-19T01:48:28;11.90;94.10
70550;DHT22;58101;48.658;2.328;2023-05-19T01:51:03;11.90;94.80
70550;DHT22;58101;48.658;2.328;2023-05-19T01:53:32;11.90;94.90
70550;DHT22;58101;48.658;2.328;2023-05-19T01:55:58;12.00;95.60
70550;DHT22;58101;48.658;2.328;2023-05-19T01:58:43;11.90;95.70
70550;DHT22;58101;48.658;2.328;2023-05-19T02:01:51;11.80;96.60
70550;DHT22;58101;48.658;2.328;2023-05-19T02:04:27;11.80;97.40
70550;DHT22;58101;48.658;2.328;2023-05-19T02:07:22;11.80;97.90
70550;DHT22;58101;48.658;2.328;2023-05-19T02:10:03;11.80;98.00
70550;DHT22;58101;48.658;2.328;2023-05-19T02:12:37;11.70;98.30
70550;DHT22;58101;48.658;2.328;2023-05-19T02:15:08;11.70;99.00
70550;DHT22;58101;48.658;2.328;2023-05-19T02:17:39;11.70;99.50
70550;DHT22;58101;48.658;2.328;2023-05-19T02:20:12;11.60;99.90
70550;DHT22;58101;48.658;2.328;2023-05-19T02:22:39;11.60;99.90
70550;DHT22;58101;48.658;2.328;2023-05-19T02:25:05;11.60;99.90
70550;DHT22;58101;48.658;2.328;2023-05-19T02:27:32;11.60;99.90
70550;DHT22;58101;48.658;2.328;2023-05-19T02:29:57;11.60;99.90
70550;DHT22;58101;48.658;2.328;2023-05-19T02:32:23;11.60;99.90
70550;DHT22;58101;48.658;2.328;2023-05-19T02:34:48;11.50;99.90
70550;DHT22;58101;48.658;2.328;2023-05-19T02:37:14;11.40;99.90
70550;DHT22;58101;48.658;2.328;2023-05-19T02:39:43;11.40;99.90
70550;DHT22;58101;48.658;2.328;2023-05-19T02:42:09;11.50;99.90
70550;DHT22;58101;48.658;2.328;2023-05-19T02:44:36;11.50;99.90
70550;DHT22;58101;48.658;2.328;2023-05-19T02:47:02;11.40;99.90
70550;DHT22;58101;48.658;2.328;2023-05-19T02:49:28;11.40;99.90
70550;DHT22;58101;48.658;2.328;2023-05-19T02:52:03;11.40;99.90
70550;DHT22;58101;48.658;2.328;2023-05-19T02:54:32;11.40;99.90
70550;DHT22;58101;48.658;2.328;2023-05-19T02:56:58;11.40;99.90
70550;DHT22;58101;48.658;2.328;2023-05-19T02:59:24;11.30;99.90
70550;DHT22;58101;48.658;2.328;2023-05-19T03:01:53;11.40;99.90
70550;DHT22;58101;48.658;2.328;2023-05-19T03:04:29;11.30;99.90
70550;DHT22;58101;48.658;2.328;2023-05-19T03:06:55;11.40;99.90
70550;DHT22;58101;48.658;2.328;2023-05-19T03:09:20;11.30;99.90
70550;DHT22;58101;48.658;2.328;2023-05-19T03:11:46;11.30;99.90
70550;DHT22;58101;48.658;2.328;2023-05-19T03:14:11;11.30;99.90
70550;DHT22;58101;48.658;2.328;2023-05-19T03:16:40;11.20;99.90
70550;DHT22;58101;48.658;2.328;2023-05-19T03:19:07;11.20;99.90
70550;DHT22;58101;48.658;2.328;2023-05-19T03:21:33;11.20;99.90
70550;DHT22;58101;48.658;2.328;2023-05-19T03:24:01;11.20;99.90
70550;DHT22;58101;48.658;2.328;2023-05-19T03:27:04;11.10;99.90
70550;DHT22;58101;48.658;2.328;2023-05-19T03:29:32;11.10;99.90
70550;DHT22;58101;48.658;2.328;2023-05-19T03:31:58;11.10;99.90
70550;DHT22;58101;48.658;2.328;2023-05-19T03:34:24;11.10;99.90
70550;DHT22;58101;48.658;2.328;2023-05-19T03:36:49;11.10;99.90
70550;DHT22;58101;48.658;2.328;2023-05-19T03:39:15;11.00;99.90
70550;DHT22;58101;48.658;2.328;2023-05-19T03:41:41;11.00;99.90
70550;DHT22;58101;48.658;2.328;2023-05-19T03:44:07;11.10;99.90
70550;DHT22;58101;48.658;2.328;2023-05-19T03:46:32;11.00;99.90
70550;DHT22;58101;48.658;2.328;2023-05-19T03:48:58;10.80;99.90
70550;DHT22;58101;48.658;2.328;2023-05-19T03:51:25;10.90;99.90
70550;DHT22;58101;48.658;2.328;2023-05-19T03:53:52;10.90;99.90
70550;DHT22;58101;48.658;2.328;2023-05-19T03:56:18;10.90;99.90
70550;DHT22;58101;48.658;2.328;2023-05-19T03:58:54;10.90;99.90
70550;DHT22;58101;48.658;2.328;2023-05-19T04:01:32;10.90;99.90
70550;DHT22;58101;48.658;2.328;2023-05-19T04:04:03;10.90;99.90
70550;DHT22;58101;48.658;2.328;2023-05-19T04:06:32;10.70;99.90
70550;DHT22;58101;48.658;2.328;2023-05-19T04:08:58;10.80;99.90
70550;DHT22;58101;48.658;2.328;2023-05-19T04:11:24;10.80;99.90
70550;DHT22;58101;48.658;2.328;2023-05-19T04:13:50;10.80;99.90
70550;DHT22;58101;48.658;2.328;2023-05-19T04:16:16;10.80;99.90
70550;DHT22;58101;48.658;2.328;2023-05-19T04:18:41;10.80;99.90
70550;DHT22;58101;48.658;2.328;2023-05-19T04:21:10;10.80;99.90
70550;DHT22;58101;48.658;2.328;2023-05-19T04:23:36;10.70;99.90
70550;DHT22;58101;48.658;2.328;2023-05-19T04:26:01;10.70;99.90
70550;DHT22;58101;48.658;2.328;2023-05-19T04:28:28;10.70;99.90
70550;DHT22;58101;48.658;2.328;2023-05-19T04:30:54;10.70;99.90
70550;DHT22;58101;48.658;2.328;2023-05-19T04:33:32;10.70;99.90
70550;DHT22;58101;48.658;2.328;2023-05-19T04:35:58;10.80;99.90
70550;DHT22;58101;48.658;2.328;2023-05-19T04:38:24;10.80;99.90
70550;DHT22;58101;48.658;2.328;2023-05-19T04:40:49;10.80;99.90
70550;DHT22;58101;48.658;2.328;2023-05-19T04:43:16;10.70;99.90
70550;DHT22;58101;48.658;2.328;2023-05-19T04:45:43;10.70;99.90
70550;DHT22;58101;48.658;2.328;2023-05-19T04:48:09;10.70;99.90
70550;DHT22;58101;48.658;2.328;2023-05-19T04:50:38;10.70;99.90
70550;DHT22;58101;48.658;2.328;2023-05-19T04:53:07;10.70;99.90
70550;DHT22;58101;48.658;2.328;2023-05-19T04:55:33;10.70;99.90
70550;DHT22;58101;48.658;2.328;2023-05-19T04:57:59;10.70;99.90
70550;DHT22;58101;48.658;2.328;2023-05-19T05:00:25;10.70;99.90
70550;DHT22;58101;48.658;2.328;2023-05-19T05:02:51;10.80;99.90
70550;DHT22;58101;48.658;2.328;2023-05-19T05:05:16;10.90;99.90
70550;DHT22;58101;48.658;2.328;2023-05-19T05:07:42;10.80;99.90
70550;DHT22;58101;48.658;2.328;2023-05-19T05:10:08;10.90;99.90
70550;DHT22;58101;48.658;2.328;2023-05-19T05:12:34;10.90;99.90
70550;DHT22;58101;48.658;2.328;2023-05-19T05:15:00;11.00;99.90
70550;DHT22;58101;48.658;2.328;2023-05-19T05:17:26;11.00;99.90
70550;DHT22;58101;48.658;2.328;2023-05-19T05:19:52;11.00;99.90
70550;DHT22;58101;48.658;2.328;2023-05-19T05:22:18;11.10;99.90
70550;DHT22;58101;48.658;2.328;2023-05-19T05:24:45;11.10;99.90
70550;DHT22;58101;48.658;2.328;2023-05-19T05:27:11;11.10;99.90
70550;DHT22;58101;48.658;2.328;2023-05-19T05:29:37;11.20;99.90
70550;DHT22;58101;48.658;2.328;2023-05-19T05:32:03;11.20;99.90
70550;DHT22;58101;48.658;2.328;2023-05-19T05:34:29;11.30;99.90
70550;DHT22;58101;48.658;2.328;2023-05-19T05:36:57;11.40;99.90
70550;DHT22;58101;48.658;2.328;2023-05-19T05:39:23;11.50;99.90
70550;DHT22;58101;48.658;2.328;2023-05-19T05:41:48;11.40;99.90
70550;DHT22;58101;48.658;2.328;2023-05-19T05:44:26;11.50;99.90
70550;DHT22;58101;48.658;2.328;2023-05-19T05:46:52;11.60;99.90
70550;DHT22;58101;48.658;2.328;2023-05-19T05:49:18;11.60;99.90
70550;DHT22;58101;48.658;2.328;2023-05-19T05:51:44;11.70;99.90
70550;DHT22;58101;48.658;2.328;2023-05-19T05:54:15;11.70;99.90
70550;DHT22;58101;48.658;2.328;2023-05-19T05:56:41;11.80;99.90
70550;DHT22;58101;48.658;2.328;2023-05-19T05:59:07;11.90;99.90
70550;DHT22;58101;48.658;2.328;2023-05-19T06:01:41;12.00;99.90
70550;DHT22;58101;48.658;2.328;2023-05-19T06:04:08;12.00;99.90
70550;DHT22;58101;48.658;2.328;2023-05-19T06:06:35;12.20;99.90
70550;DHT22;58101;48.658;2.328;2023-05-19T06:09:03;12.30;99.90
70550;DHT22;58101;48.658;2.328;2023-05-19T06:11:30;12.40;99.90
70550;DHT22;58101;48.658;2.328;2023-05-19T06:13:55;12.50;99.90
70550;DHT22;58101;48.658;2.328;2023-05-19T06:16:21;12.50;99.90
70550;DHT22;58101;48.658;2.328;2023-05-19T06:18:46;12.60;99.90
70550;DHT22;58101;48.658;2.328;2023-05-19T06:21:12;12.80;99.90
70550;DHT22;58101;48.658;2.328;2023-05-19T06:23:41;12.80;99.60
70550;DHT22;58101;48.658;2.328;2023-05-19T06:26:08;12.80;98.90
70550;DHT22;58101;48.658;2.328;2023-05-19T06:28:34;12.90;98.30
70550;DHT22;58101;48.658;2.328;2023-05-19T06:31:03;12.90;97.90
70550;DHT22;58101;48.658;2.328;2023-05-19T06:33:30;13.10;98.50
70550;DHT22;58101;48.658;2.328;2023-05-19T06:35:55;13.20;97.80
70550;DHT22;58101;48.658;2.328;2023-05-19T06:38:39;13.20;95.00
70550;DHT22;58101;48.658;2.328;2023-05-19T06:41:20;13.40;94.20
70550;DHT22;58101;48.658;2.328;2023-05-19T06:43:46;13.40;92.30
70550;DHT22;58101;48.658;2.328;2023-05-19T06:46:42;13.50;93.40
70550;DHT22;58101;48.658;2.328;2023-05-19T06:49:31;13.50;91.90
70550;DHT22;58101;48.658;2.328;2023-05-19T06:51:57;13.70;91.80
70550;DHT22;58101;48.658;2.328;2023-05-19T06:54:22;13.80;89.90
70550;DHT22;58101;48.658;2.328;2023-05-19T06:56:48;13.90;89.70
70550;DHT22;58101;48.658;2.328;2023-05-19T06:59:14;13.90;89.10
70550;DHT22;58101;48.658;2.328;2023-05-19T07:01:41;13.90;87.70
70550;DHT22;58101;48.658;2.328;2023-05-19T07:04:06;14.10;88.30
70550;DHT22;58101;48.658;2.328;2023-05-19T07:06:41;14.20;90.60
70550;DHT22;58101;48.658;2.328;2023-05-19T07:09:07;14.30;89.40
70550;DHT22;58101;48.658;2.328;2023-05-19T07:11:39;14.50;86.30
70550;DHT22;58101;48.658;2.328;2023-05-19T07:14:05;14.60;85.10
70550;DHT22;58101;48.658;2.328;2023-05-19T07:16:30;14.80;85.50
70550;DHT22;58101;48.658;2.328;2023-05-19T07:18:56;14.80;84.00
70550;DHT22;58101;48.658;2.328;2023-05-19T07:21:21;14.90;80.70
70550;DHT22;58101;48.658;2.328;2023-05-19T07:23:47;15.10;80.40
70550;DHT22;58101;48.658;2.328;2023-05-19T07:26:13;15.30;77.80
70550;DHT22;58101;48.658;2.328;2023-05-19T07:28:51;15.30;75.90
70550;DHT22;58101;48.658;2.328;2023-05-19T07:31:17;15.30;73.20
70550;DHT22;58101;48.658;2.328;2023-05-19T07:33:42;15.40;72.50
70550;DHT22;58101;48.658;2.328;2023-05-19T07:36:08;15.50;72.20
70550;DHT22;58101;48.658;2.328;2023-05-19T07:38:34;15.60;71.70
70550;DHT22;58101;48.658;2.328;2023-05-19T07:41:00;15.60;70.60
70550;DHT22;58101;48.658;2.328;2023-05-19T07:43:26;15.80;71.00
70550;DHT22;58101;48.658;2.328;2023-05-19T07:45:52;15.90;69.80
70550;DHT22;58101;48.658;2.328;2023-05-19T07:48:19;16.00;70.30
70550;DHT22;58101;48.658;2.328;2023-05-19T07:50:50;16.00;68.50
70550;DHT22;58101;48.658;2.328;2023-05-19T07:53:18;16.10;65.10
70550;DHT22;58101;48.658;2.328;2023-05-19T07:55:45;16.30;65.20
70550;DHT22;58101;48.658;2.328;2023-05-19T07:58:47;16.30;65.90
70550;DHT22;58101;48.658;2.328;2023-05-19T08:01:13;16.50;64.00
70550;DHT22;58101;48.658;2.328;2023-05-19T08:03:42;16.60;63.90
70550;DHT22;58101;48.658;2.328;2023-05-19T08:06:07;16.60;64.00
70550;DHT22;58101;48.658;2.328;2023-05-19T08:08:33;16.80;62.80
70550;DHT22;58101;48.658;2.328;2023-05-19T08:11:03;17.00;63.50
70550;DHT22;58101;48.658;2.328;2023-05-19T08:13:42;17.10;62.20
70550;DHT22;58101;48.658;2.328;2023-05-19T08:16:07;17.20;61.30
70550;DHT22;58101;48.658;2.328;2023-05-19T08:18:33;17.30;60.90
70550;DHT22;58101;48.658;2.328;2023-05-19T08:21:01;17.40;59.40
70550;DHT22;58101;48.658;2.328;2023-05-19T08:23:37;17.50;59.40
70550;DHT22;58101;48.658;2.328;2023-05-19T08:26:03;17.50;58.60
70550;DHT22;58101;48.658;2.328;2023-05-19T08:28:32;17.80;58.40
70550;DHT22;58101;48.658;2.328;2023-05-19T08:31:01;17.90;57.40
70550;DHT22;58101;48.658;2.328;2023-05-19T08:33:27;18.00;57.50
70550;DHT22;58101;48.658;2.328;2023-05-19T08:36:30;18.10;57.90
70550;DHT22;58101;48.658;2.328;2023-05-19T08:39:03;18.30;56.20
70550;DHT22;58101;48.658;2.328;2023-05-19T08:41:29;18.40;55.60
70550;DHT22;58101;48.658;2.328;2023-05-19T08:43:58;18.60;55.70
70550;DHT22;58101;48.658;2.328;2023-05-19T08:46:40;18.80;55.70
70550;DHT22;58101;48.658;2.328;2023-05-19T08:49:10;18.90;55.40
70550;DHT22;58101;48.658;2.328;2023-05-19T08:54:16;19.20;53.00
70550;DHT22;58101;48.658;2.328;2023-05-19T08:56:43;19.30;53.30
70550;DHT22;58101;48.658;2.328;2023-05-19T08:59:27;19.50;53.00
70550;DHT22;58101;48.658;2.328;2023-05-19T09:01:56;19.60;51.00
70550;DHT22;58101;48.658;2.328;2023-05-19T09:04:24;19.80;50.70
70550;DHT22;58101;48.658;2.328;2023-05-19T09:06:52;20.00;51.00
70550;DHT22;58101;48.658;2.328;2023-05-19T09:09:21;20.40;50.50
70550;DHT22;58101;48.658;2.328;2023-05-19T09:12:02;20.70;49.20
70550;DHT22;58101;48.658;2.328;2023-05-19T09:14:28;21.40;48.30
70550;DHT22;58101;48.658;2.328;2023-05-19T09:16:55;22.70;47.20
70550;DHT22;58101;48.658;2.328;2023-05-19T09:19:30;23.90;42.70
70550;DHT22;58101;48.658;2.328;2023-05-19T09:22:28;25.30;40.40
70550;DHT22;58101;48.658;2.328;2023-05-19T09:24:55;26.80;35.70
70550;DHT22;58101;48.658;2.328;2023-05-19T09:27:23;27.60;32.90
70550;DHT22;58101;48.658;2.328;2023-05-19T09:29:50;28.20;31.70
70550;DHT22;58101;48.658;2.328;2023-05-19T09:32:26;28.80;30.00
70550;DHT22;58101;48.658;2.328;2023-05-19T09:34:52;29.10;28.40
70550;DHT22;58101;48.658;2.328;2023-05-19T09:37:22;29.40;28.60
70550;DHT22;58101;48.658;2.328;2023-05-19T09:39:48;29.80;29.60
70550;DHT22;58101;48.658;2.328;2023-05-19T09:42:26;30.20;27.80
70550;DHT22;58101;48.658;2.328;2023-05-19T09:45:01;30.30;27.20
70550;DHT22;58101;48.658;2.328;2023-05-19T09:47:27;30.50;27.20
70550;DHT22;58101;48.658;2.328;2023-05-19T09:49:53;30.40;26.50
70550;DHT22;58101;48.658;2.328;2023-05-19T09:52:19;30.50;26.20
70550;DHT22;58101;48.658;2.328;2023-05-19T09:54:48;30.60;26.70
70550;DHT22;58101;48.658;2.328;2023-05-19T09:57:16;30.90;27.20
70550;DHT22;58101;48.658;2.328;2023-05-19T09:59:42;31.30;27.10
70550;DHT22;58101;48.658;2.328;2023-05-19T10:02:16;31.60;26.70
70550;DHT22;58101;48.658;2.328;2023-05-19T10:04:46;31.80;25.40
70550;DHT22;58101;48.658;2.328;2023-05-19T10:07:13;31.60;25.10
70550;DHT22;58101;48.658;2.328;2023-05-19T10:09:40;31.80;25.60
70550;DHT22;58101;48.658;2.328;2023-05-19T10:12:08;32.00;25.10
70550;DHT22;58101;48.658;2.328;2023-05-19T10:14:35;32.10;24.70
70550;DHT22;58101;48.658;2.328;2023-05-19T10:17:01;32.00;23.60
70550;DHT22;58101;48.658;2.328;2023-05-19T10:19:27;32.00;23.90
70550;DHT22;58101;48.658;2.328;2023-05-19T10:21:54;31.80;23.80
70550;DHT22;58101;48.658;2.328;2023-05-19T10:24:20;31.60;24.80
70550;DHT22;58101;48.658;2.328;2023-05-19T10:27:07;31.60;24.40
70550;DHT22;58101;48.658;2.328;2023-05-19T10:29:39;31.30;23.90
70550;DHT22;58101;48.658;2.328;2023-05-19T10:32:10;31.10;23.80
70550;DHT22;58101;48.658;2.328;2023-05-19T10:40:19;30.90;23.60
70550;DHT22;58101;48.658;2.328;2023-05-19T10:43:04;30.60;23.80
70550;DHT22;58101;48.658;2.328;2023-05-19T10:45:48;30.50;24.30
70550;DHT22;58101;48.658;2.328;2023-05-19T10:48:16;30.40;24.60
70550;DHT22;58101;48.658;2.328;2023-05-19T10:50:47;30.30;24.00
70550;DHT22;58101;48.658;2.328;2023-05-19T10:53:17;30.10;24.10
70550;DHT22;58101;48.658;2.328;2023-05-19T10:58:12;29.10;25.80
70550;DHT22;58101;48.658;2.328;2023-05-19T11:00:38;28.90;26.30
70550;DHT22;58101;48.658;2.328;2023-05-19T11:03:14;28.80;26.30
70550;DHT22;58101;48.658;2.328;2023-05-19T11:05:41;28.40;24.90
70550;DHT22;58101;48.658;2.328;2023-05-19T11:08:10;28.00;26.00
70550;DHT22;58101;48.658;2.328;2023-05-19T11:10:37;27.90;25.50
70550;DHT22;58101;48.658;2.328;2023-05-19T11:13:05;27.70;25.70
70550;DHT22;58101;48.658;2.328;2023-05-19T11:15:34;27.50;26.70
70550;DHT22;58101;48.658;2.328;2023-05-19T11:18:03;27.50;25.70
70550;DHT22;58101;48.658;2.328;2023-05-19T11:20:30;27.50;27.00
70550;DHT22;58101;48.658;2.328;2023-05-19T11:23:15;27.40;26.90
70550;DHT22;58101;48.658;2.328;2023-05-19T11:26:06;27.30;27.60
70550;DHT22;58101;48.658;2.328;2023-05-19T11:28:48;27.10;27.40
70550;DHT22;58101;48.658;2.328;2023-05-19T11:31:24;27.10;28.60
70550;DHT22;58101;48.658;2.328;2023-05-19T11:33:52;27.20;28.40
70550;DHT22;58101;48.658;2.328;2023-05-19T11:36:19;27.40;28.70
70550;DHT22;58101;48.658;2.328;2023-05-19T11:39:13;27.60;28.70
70550;DHT22;58101;48.658;2.328;2023-05-19T11:41:45;27.70;27.30
70550;DHT22;58101;48.658;2.328;2023-05-19T11:44:11;27.90;27.20
70550;DHT22;58101;48.658;2.328;2023-05-19T11:46:36;28.00;28.70
70550;DHT22;58101;48.658;2.328;2023-05-19T11:49:04;28.00;28.00
70550;DHT22;58101;48.658;2.328;2023-05-19T11:51:32;27.80;27.60
70550;DHT22;58101;48.658;2.328;2023-05-19T11:53:58;27.60;28.10
70550;DHT22;58101;48.658;2.328;2023-05-19T11:56:24;27.60;28.10
70550;DHT22;58101;48.658;2.328;2023-05-19T11:58:51;27.50;29.20
70550;DHT22;58101;48.658;2.328;2023-05-19T12:01:23;27.40;29.10
70550;DHT22;58101;48.658;2.328;2023-05-19T12:03:51;27.30;28.40
70550;DHT22;58101;48.658;2.328;2023-05-19T12:06:16;27.00;27.70
70550;DHT22;58101;48.658;2.328;2023-05-19T12:08:45;26.60;29.20
70550;DHT22;58101;48.658;2.328;2023-05-19T12:11:11;26.30;28.90
70550;DHT22;58101;48.658;2.328;2023-05-19T12:13:36;26.20;29.50
70550;DHT22;58101;48.658;2.328;2023-05-19T12:16:03;26.40;29.70
70550;DHT22;58101;48.658;2.328;2023-05-19T12:18:29;26.70;30.00
70550;DHT22;58101;48.658;2.328;2023-05-19T12:20:56;26.90;30.00
70550;DHT22;58101;48.658;2.328;2023-05-19T12:23:21;26.90;28.30
70550;DHT22;58101;48.658;2.328;2023-05-19T12:25:49;26.60;27.70
70550;DHT22;58101;48.658;2.328;2023-05-19T12:28:18;26.50;28.40
70550;DHT22;58101;48.658;2.328;2023-05-19T12:30:47;26.20;29.60
70550;DHT22;58101;48.658;2.328;2023-05-19T12:33:14;26.00;29.30
70550;DHT22;58101;48.658;2.328;2023-05-19T12:35:41;25.90;29.10
70550;DHT22;58101;48.658;2.328;2023-05-19T12:38:07;25.90;29.90
70550;DHT22;58101;48.658;2.328;2023-05-19T12:40:33;25.90;29.70
70550;DHT22;58101;48.658;2.328;2023-05-19T12:43:03;25.90;29.60
70550;DHT22;58101;48.658;2.328;2023-05-19T12:45:35;25.80;29.70
70550;DHT22;58101;48.658;2.328;2023-05-19T12:48:15;25.70;29.10
70550;DHT22;58101;48.658;2.328;2023-05-19T12:50:42;25.50;29.20
70550;DHT22;58101;48.658;2.328;2023-05-19T12:53:15;25.40;29.40
70550;DHT22;58101;48.658;2.328;2023-05-19T12:55:43;25.30;30.20
70550;DHT22;58101;48.658;2.328;2023-05-19T12:58:10;25.20;30.30
70550;DHT22;58101;48.658;2.328;2023-05-19T13:00:43;25.10;30.30
70550;DHT22;58101;48.658;2.328;2023-05-19T13:03:17;25.20;31.40
70550;DHT22;58101;48.658;2.328;2023-05-19T13:05:45;25.30;30.30
70550;DHT22;58101;48.658;2.328;2023-05-19T13:08:13;25.40;29.60
70550;DHT22;58101;48.658;2.328;2023-05-19T13:10:43;25.40;29.80
70550;DHT22;58101;48.658;2.328;2023-05-19T13:13:12;25.40;30.30
70550;DHT22;58101;48.658;2.328;2023-05-19T13:15:45;25.50;30.50
70550;DHT22;58101;48.658;2.328;2023-05-19T13:18:13;25.50;29.60
70550;DHT22;58101;48.658;2.328;2023-05-19T13:20:58;25.50;30.10
70550;DHT22;58101;48.658;2.328;2023-05-19T13:23:24;25.50;31.00
70550;DHT22;58101;48.658;2.328;2023-05-19T13:26:01;25.40;30.30
70550;DHT22;58101;48.658;2.328;2023-05-19T13:29:07;25.40;30.60
70550;DHT22;58101;48.658;2.328;2023-05-19T13:31:36;25.50;31.10
70550;DHT22;58101;48.658;2.328;2023-05-19T13:34:02;25.60;30.10
70550;DHT22;58101;48.658;2.328;2023-05-19T13:39:13;25.50;30.10
70550;DHT22;58101;48.658;2.328;2023-05-19T13:41:38;25.50;29.70
70550;DHT22;58101;48.658;2.328;2023-05-19T13:44:04;25.40;30.00
70550;DHT22;58101;48.658;2.328;2023-05-19T13:46:29;25.20;29.70
70550;DHT22;58101;48.658;2.328;2023-05-19T13:49:00;25.10;30.20
70550;DHT22;58101;48.658;2.328;2023-05-19T13:51:26;25.10;30.20
70550;DHT22;58101;48.658;2.328;2023-05-19T13:53:56;25.20;30.80
70550;DHT22;58101;48.658;2.328;2023-05-19T13:56:22;25.30;30.90
70550;DHT22;58101;48.658;2.328;2023-05-19T13:58:53;25.30;29.80
70550;DHT22;58101;48.658;2.328;2023-05-19T14:01:19;25.20;29.60
70550;DHT22;58101;48.658;2.328;2023-05-19T14:03:50;25.10;29.70
70550;DHT22;58101;48.658;2.328;2023-05-19T14:06:16;25.00;30.30
70550;DHT22;58101;48.658;2.328;2023-05-19T14:08:42;24.80;30.60
70550;DHT22;58101;48.658;2.328;2023-05-19T14:11:08;24.60;30.00
70550;DHT22;58101;48.658;2.328;2023-05-19T14:13:33;24.50;31.60
70550;DHT22;58101;48.658;2.328;2023-05-19T14:15:59;24.20;29.50
70550;DHT22;58101;48.658;2.328;2023-05-19T14:18:25;23.80;30.30
70550;DHT22;58101;48.658;2.328;2023-05-19T14:20:51;23.40;31.70
70550;DHT22;58101;48.658;2.328;2023-05-19T14:23:16;23.20;32.50
70550;DHT22;58101;48.658;2.328;2023-05-19T14:25:44;23.10;32.50
70550;DHT22;58101;48.658;2.328;2023-05-19T14:28:10;23.00;32.50
70550;DHT22;58101;48.658;2.328;2023-05-19T14:30:35;23.00;32.30
70550;DHT22;58101;48.658;2.328;2023-05-19T14:33:01;22.90;32.40
70550;DHT22;58101;48.658;2.328;2023-05-19T14:35:26;22.90;31.70
70550;DHT22;58101;48.658;2.328;2023-05-19T14:37:52;22.90;32.20
70550;DHT22;58101;48.658;2.328;2023-05-19T14:40:18;22.90;33.00
70550;DHT22;58101;48.658;2.328;2023-05-19T14:42:44;22.90;33.50
70550;DHT22;58101;48.658;2.328;2023-05-19T14:45:10;22.90;33.10
70550;DHT22;58101;48.658;2.328;2023-05-19T14:47:35;22.80;33.80
70550;DHT22;58101;48.658;2.328;2023-05-19T14:50:01;22.80;32.60
70550;DHT22;58101;48.658;2.328;2023-05-19T14:52:26;22.70;33.20
70550;DHT22;58101;48.658;2.328;2023-05-19T14:54:52;22.60;33.10
70550;DHT22;58101;48.658;2.328;2023-05-19T14:57:18;22.50;34.20
70550;DHT22;58101;48.658;2.328;2023-05-19T14:59:43;22.60;33.30
70550;DHT22;58101;48.658;2.328;2023-05-19T15:02:09;22.70;34.30
70550;DHT22;58101;48.658;2.328;2023-05-19T15:04:39;22.70;33.20
70550;DHT22;58101;48.658;2.328;2023-05-19T15:07:05;22.70;34.00
70550;DHT22;58101;48.658;2.328;2023-05-19T15:09:30;22.70;33.10
70550;DHT22;58101;48.658;2.328;2023-05-19T15:11:56;22.60;33.60
70550;DHT22;58101;48.658;2.328;2023-05-19T15:14:25;22.80;35.10
70550;DHT22;58101;48.658;2.328;2023-05-19T15:16:51;22.90;33.20
70550;DHT22;58101;48.658;2.328;2023-05-19T15:19:17;23.00;33.60
70550;DHT22;58101;48.658;2.328;2023-05-19T15:21:43;22.90;32.60
70550;DHT22;58101;48.658;2.328;2023-05-19T15:24:10;22.80;32.50
70550;DHT22;58101;48.658;2.328;2023-05-19T15:26:36;22.70;33.40
70550;DHT22;58101;48.658;2.328;2023-05-19T15:29:02;22.70;33.80
70550;DHT22;58101;48.658;2.328;2023-05-19T15:31:29;22.70;34.00
70550;DHT22;58101;48.658;2.328;2023-05-19T15:33:55;22.70;33.40
70550;DHT22;58101;48.658;2.328;2023-05-19T15:36:20;22.70;33.70
70550;DHT22;58101;48.658;2.328;2023-05-19T15:38:46;22.60;34.10
70550;DHT22;58101;48.658;2.328;2023-05-19T15:41:11;22.40;34.00
70550;DHT22;58101;48.658;2.328;2023-05-19T15:43:37;22.20;34.70
70550;DHT22;58101;48.658;2.328;2023-05-19T15:46:03;22.10;34.30
70550;DHT22;58101;48.658;2.328;2023-05-19T15:48:32;21.80;34.50
70550;DHT22;58101;48.658;2.328;2023-05-19T15:50:58;21.70;35.20
70550;DHT22;58101;48.658;2.328;2023-05-19T15:53:24;21.80;35.20
70550;DHT22;58101;48.658;2.328;2023-05-19T15:55:50;21.90;34.90
70550;DHT22;58101;48.658;2.328;2023-05-19T15:58:15;21.90;35.10
70550;DHT22;58101;48.658;2.328;2023-05-19T16:00:42;21.90;34.30
70550;DHT22;58101;48.658;2.328;2023-05-19T16:03:08;21.90;35.60
70550;DHT22;58101;48.658;2.328;2023-05-19T16:05:33;21.80;35.60
70550;DHT22;58101;48.658;2.328;2023-05-19T16:08:02;21.80;34.90